ベルリン/テーゲル の空港の天気 - METARとTAF

ベルリン・テーゲル国際空港 ( EDDT / TXL ) - ドイツ ベルリン
飛行場実況気象(Metar)
観測時間03/26 08:50 CEST (03/26 06:50 UTC)
風向・風速不定 1m/s
視程10km以上
天気現象
なし
気温4℃
湿度93%
気圧1026hPa
METAREDDT 260650Z VRB02KT CAVOK 04/03 Q1026 NOSIG
過去の天気等 Google飛行場航空写真 Wunderground天気予報

過去48時間のMETAR

飛行場予報(TAF)
発表時間: 3/26 07:00 CEST (3/26 05:00 UTC)
予報対象時間: 26日8時 CEST ~ 27日8時 CEST
風向・風速不定 2m/s
視程10km以上
なし
26日8時 CEST ~ 26日10時 CEST に一時的に
視程2,500m
天気現象もや
TAF EDDT 260500Z 2606/2706 VRB03KT CAVOK
TEMPO 2606/2608 2500 BR